Time;durP1;ratioP1;P1;durP2;ratioP2;P2;SDS_P1;SDS_P2;PMS_P1;PMS_P2;Temp;Humidity;BMP_temperature;BMP_pressure;BME280_temperature;BME280_humidity;BME280_pressure;Samples;Min_cycle;Max_cycle;Signal;HPM_P1;HPM_P2
2022/01/16 00:04:33;;;;;;;11.03;5.13;;;;;;;0.09;100.00;101719.72;5037840;28;20040;-83
2022/01/16 00:07:03;;;;;;;11.63;5.40;;;;;;;0.05;100.00;101724.72;5036393;28;20055;-82
2022/01/16 00:09:35;;;;;;;7.83;5.40;;;;;;;0.02;100.00;101729.81;5012670;28;20049;-82
2022/01/16 00:12:07;;;;;;;10.83;6.57;;;;;;;0.20;100.00;101713.22;5034772;28;20062;-83
2022/01/16 00:14:38;;;;;;;11.67;5.90;;;;;;;0.32;100.00;101712.78;5011731;28;20036;-82
2022/01/16 00:17:05;;;;;;;12.57;7.30;;;;;;;0.21;100.00;101701.09;5016158;28;20086;-80
2022/01/16 00:19:32;;;;;;;9.80;5.77;;;;;;;0.04;100.00;101713.44;5035661;28;20045;-80
2022/01/16 00:21:59;;;;;;;10.90;5.57;;;;;;;-0.07;100.00;101723.41;5031856;28;20033;-83
2022/01/16 00:24:27;;;;;;;14.37;6.67;;;;;;;-0.02;100.00;101715.78;5030907;28;20620;-83
2022/01/16 00:26:57;;;;;;;14.13;5.83;;;;;;;-0.05;100.00;101700.97;5017880;28;20048;-82
2022/01/16 00:29:28;;;;;;;18.57;7.20;;;;;;;0.04;100.00;101702.16;5021711;28;20068;-82
2022/01/16 00:31:57;;;;;;;10.07;5.50;;;;;;;-0.07;100.00;101709.53;5028036;28;20483;-82
2022/01/16 00:34:24;;;;;;;14.30;5.57;;;;;;;-0.17;100.00;101718.69;5025557;28;20044;-81
2022/01/16 00:36:51;;;;;;;13.37;5.53;;;;;;;-0.09;100.00;101717.25;5065547;28;20065;-82
2022/01/16 00:39:18;;;;;;;13.17;6.20;;;;;;;-0.16;100.00;101730.84;5029323;28;20044;-83
2022/01/16 00:41:45;;;;;;;9.87;5.27;;;;;;;-0.11;100.00;101734.50;5052808;28;20040;-81
2022/01/16 00:44:13;;;;;;;13.93;5.77;;;;;;;-0.12;100.00;101718.84;5038361;28;20048;-83
2022/01/16 00:46:41;;;;;;;12.17;5.80;;;;;;;-0.06;100.00;101711.31;5016744;28;20116;-83
2022/01/16 00:49:08;;;;;;;10.13;5.20;;;;;;;-0.12;100.00;101688.56;5048751;28;20447;-82
2022/01/16 00:51:37;;;;;;;12.97;5.57;;;;;;;-0.15;100.00;101696.25;5017921;28;20056;-84
2022/01/16 00:54:18;;;;;;;11.17;5.77;;;;;;;-0.08;100.00;101661.03;5063576;28;20040;-82
2022/01/16 00:56:47;;;;;;;18.00;6.73;;;;;;;-0.10;100.00;101653.16;5032065;28;20049;-83
2022/01/16 00:59:14;;;;;;;19.20;6.47;;;;;;;-0.06;100.00;101670.63;5010773;28;20044;-83
2022/01/16 01:01:44;;;;;;;11.20;6.20;;;;;;;-0.15;100.00;101659.91;5036640;28;20051;-82
2022/01/16 01:04:11;;;;;;;17.47;6.57;;;;;;;-0.18;100.00;101672.75;5039909;28;20137;-81
2022/01/16 01:06:38;;;;;;;14.40;5.83;;;;;;;-0.14;100.00;101655.59;5008014;28;20094;-82
2022/01/16 01:09:05;;;;;;;14.13;5.67;;;;;;;-0.13;100.00;101666.03;5032052;28;20659;-84
2022/01/16 01:11:32;;;;;;;11.90;5.97;;;;;;;-0.14;100.00;101651.28;5020151;28;20516;-81
2022/01/16 01:16:50;;;;;;;16.47;6.70;;;;;;;-0.04;100.00;101655.09;5030156;28;20059;-83
2022/01/16 01:19:19;;;;;;;11.60;5.03;;;;;;;-0.08;100.00;101656.72;5014973;28;20048;-83
2022/01/16 01:21:46;;;;;;;17.17;7.20;;;;;;;-0.06;100.00;101638.59;5012154;28;20048;-81
2022/01/16 01:24:16;;;;;;;10.43;5.53;;;;;;;-0.10;100.00;101650.56;5025383;28;20044;-81
2022/01/16 01:26:52;;;;;;;18.00;5.87;;;;;;;0.01;100.00;101631.91;5041764;28;20045;-83
2022/01/16 01:29:20;;;;;;;11.80;5.10;;;;;;;-0.11;100.00;101642.72;5023479;28;20054;-82
2022/01/16 01:31:48;;;;;;;10.03;4.90;;;;;;;-0.15;100.00;101646.91;5033294;28;20466;-83
2022/01/16 01:34:15;;;;;;;18.90;6.20;;;;;;;-0.06;100.00;101651.56;5020582;28;20047;-82
2022/01/16 01:36:47;;;;;;;9.87;5.17;;;;;;;-0.14;100.00;101640.88;5037890;28;20048;-81
2022/01/16 01:39:16;;;;;;;15.83;6.20;;;;;;;-0.09;100.00;101659.22;5039685;28;20040;-81
2022/01/16 01:41:49;;;;;;;11.63;5.77;;;;;;;-0.06;100.00;101649.84;5017925;28;20068;-83
2022/01/16 01:52:46;;;;;;;8.83;4.67;;;;;;;-0.09;100.00;101524.16;5028084;28;20045;-83
2022/01/16 01:55:15;;;;;;;14.20;5.13;;;;;;;-0.09;100.00;101509.47;5037377;28;20445;-81
2022/01/16 01:57:41;;;;;;;11.03;5.50;;;;;;;-0.07;100.00;101523.41;5007062;28;20049;-81
2022/01/16 02:00:08;;;;;;;13.43;6.80;;;;;;;-0.06;100.00;101514.78;5038812;28;20049;-82
2022/01/16 02:02:47;;;;;;;13.97;6.43;;;;;;;-0.07;100.00;101536.41;5040967;28;20044;-82
2022/01/16 02:05:17;;;;;;;13.30;5.73;;;;;;;-0.06;100.00;101545.06;5013447;28;20045;-82
2022/01/16 02:07:44;;;;;;;13.27;5.83;;;;;;;-0.04;100.00;101551.19;5009858;28;20048;-82
2022/01/16 02:10:13;;;;;;;12.33;6.00;;;;;;;-0.03;100.00;101568.56;5040968;28;20244;-81
2022/01/16 02:12:44;;;;;;;10.23;5.00;;;;;;;0.01;100.00;101554.88;5039214;28;20042;-81
2022/01/16 02:29:36;;;;;;;16.87;8.13;;;;;;;0.07;100.00;101525.59;5043619;28;20059;-80
2022/01/16 02:34:39;;;;;;;17.60;7.17;;;;;;;0.14;100.00;101525.00;5038465;28;20167;-82
2022/01/16 02:37:09;;;;;;;15.07;7.03;;;;;;;0.12;100.00;101530.16;5024686;28;20067;-81
2022/01/16 02:39:42;;;;;;;16.93;6.80;;;;;;;0.13;100.00;101523.22;5042301;28;20040;-82
2022/01/16 02:42:11;;;;;;;;;;;;;;;0.11;100.00;101520.59;5035848;28;20108;-82
2022/01/16 02:47:14;;;;;;;16.90;7.50;;;;;;;0.12;100.00;101524.94;5057066;28;20048;-81
2022/01/16 02:49:43;;;;;;;16.57;8.07;;;;;;;0.13;100.00;101515.44;5020063;28;20498;-81
2022/01/16 02:52:13;;;;;;;22.63;7.50;;;;;;;0.15;100.00;101519.84;5039780;28;20834;-81
2022/01/16 02:54:42;;;;;;;15.77;7.77;;;;;;;0.15;100.00;101511.16;5015756;28;20097;-82
2022/01/16 02:57:20;;;;;;;22.83;9.83;;;;;;;0.17;100.00;101507.81;5024062;28;20048;-81
2022/01/16 02:59:53;;;;;;;16.20;7.37;;;;;;;0.19;100.00;101500.06;5056954;28;20092;-81
2022/01/16 03:02:22;;;;;;;21.83;8.13;;;;;;;0.19;100.00;101484.47;5069186;28;20135;-80
2022/01/16 03:04:49;;;;;;;16.83;8.27;;;;;;;0.20;100.00;101486.25;5030279;28;20051;-82
2022/01/16 03:07:21;;;;;;;18.07;7.93;;;;;;;0.20;100.00;101481.94;5016615;28;20104;-81
2022/01/16 03:12:51;;;;;;;20.33;8.93;;;;;;;0.23;100.00;101470.75;5011713;28;20560;-82
2022/01/16 03:15:19;;;;;;;20.00;8.23;;;;;;;0.23;100.00;101462.94;5034687;28;20056;-83
2022/01/16 03:23:17;;;;;;;20.03;8.63;;;;;;;0.34;100.00;101435.63;5034462;28;20037;-82
2022/01/16 03:25:45;;;;;;;16.73;8.87;;;;;;;0.31;100.00;101425.13;5027614;28;20040;-82
2022/01/16 03:28:12;;;;;;;21.27;9.67;;;;;;;0.33;100.00;101423.44;5042725;28;20532;-81
2022/01/16 03:30:38;;;;;;;18.80;9.70;;;;;;;0.35;100.00;101418.31;5041611;28;20123;-82
2022/01/16 03:33:05;;;;;;;19.80;9.17;;;;;;;0.33;100.00;101401.75;5030552;28;20597;-82
2022/01/16 03:35:32;;;;;;;20.53;9.70;;;;;;;0.31;100.00;101413.84;5042433;28;20099;-81
2022/01/16 03:38:01;;;;;;;18.93;9.60;;;;;;;0.35;100.00;101397.53;5038587;28;20053;-82
2022/01/16 03:40:28;;;;;;;21.40;9.67;;;;;;;0.34;100.00;101399.25;5027864;28;20462;-81
2022/01/16 03:43:03;;;;;;;25.20;9.03;;;;;;;0.32;100.00;101387.88;5026356;28;20033;-82
2022/01/16 03:45:30;;;;;;;18.93;9.93;;;;;;;0.40;100.00;101381.22;5027847;28;20044;-83
2022/01/16 03:47:59;;;;;;;20.07;9.93;;;;;;;0.36;100.00;101358.59;5041901;28;20517;-84
2022/01/16 03:50:28;;;;;;;29.60;9.53;;;;;;;0.38;100.00;101366.41;5028225;28;20048;-82
2022/01/16 03:52:55;;;;;;;25.80;9.83;;;;;;;0.36;100.00;101361.19;5044283;28;20041;-82
2022/01/16 03:55:21;;;;;;;14.97;8.20;;;;;;;0.39;100.00;101369.06;5024294;28;20048;-84
2022/01/16 03:57:48;;;;;;;17.20;8.23;;;;;;;0.40;100.00;101354.34;5015385;28;20045;-81
2022/01/16 04:00:15;;;;;;;16.77;7.73;;;;;;;0.37;100.00;101347.34;5015865;28;20107;-82
2022/01/16 04:02:41;;;;;;;18.53;9.50;;;;;;;0.41;100.00;101349.19;5063763;28;20131;-81
2022/01/16 04:05:08;;;;;;;19.20;8.30;;;;;;;0.40;100.00;101328.34;5015519;28;20139;-81
2022/01/16 04:07:35;;;;;;;18.87;8.67;;;;;;;0.38;100.00;101335.22;5022641;28;20144;-82
2022/01/16 04:10:07;;;;;;;15.90;7.47;;;;;;;0.32;100.00;101325.50;5061606;28;20795;-80
2022/01/16 04:12:37;;;;;;;21.33;9.67;;;;;;;0.30;100.00;101331.50;5039954;28;20044;-83
2022/01/16 04:17:39;;;;;;;22.30;8.37;;;;;;;0.32;100.00;101330.72;5055590;28;20489;-80
2022/01/16 04:20:07;;;;;;;19.47;9.53;;;;;;;0.29;100.00;101320.22;5044091;28;20044;-83
2022/01/16 04:22:34;;;;;;;17.03;7.97;;;;;;;0.29;100.00;101320.22;5031966;28;20048;-81
2022/01/16 04:25:00;;;;;;;18.50;8.77;;;;;;;0.29;100.00;101335.81;5037847;28;20075;-83
2022/01/16 04:27:27;;;;;;;19.83;8.07;;;;;;;0.33;100.00;101327.28;5006085;28;20106;-82
2022/01/16 04:29:54;;;;;;;15.33;7.40;;;;;;;0.27;100.00;101329.69;5045910;22;20106;-82
2022/01/16 04:32:20;;;;;;;16.83;7.40;;;;;;;0.24;100.00;101332.19;5064489;28;20103;-82
2022/01/16 04:34:47;;;;;;;15.73;8.53;;;;;;;0.16;100.00;101320.66;5259829;22;20064;-81
2022/01/16 04:37:15;;;;;;;20.80;7.77;;;;;;;0.17;100.00;101325.94;5055182;28;20039;-80
2022/01/16 04:39:49;;;;;;;14.10;6.87;;;;;;;0.11;100.00;101317.94;5041498;28;20086;-80
2022/01/16 04:45:02;;;;;;;15.63;6.90;;;;;;;-0.05;100.00;101300.06;5048907;28;20513;-83
2022/01/16 04:47:30;;;;;;;14.03;7.77;;;;;;;-0.04;100.00;101305.31;5037651;28;20045;-81
2022/01/16 04:49:56;;;;;;;15.37;7.87;;;;;;;-0.05;100.00;101310.47;5023052;28;20041;-80
2022/01/16 04:52:23;;;;;;;15.27;7.00;;;;;;;-0.14;100.00;101308.44;5033573;28;20041;-81
2022/01/16 04:54:50;;;;;;;15.30;6.30;;;;;;;-0.17;100.00;101297.97;5068477;28;20152;-81
2022/01/16 04:57:17;;;;;;;15.90;7.57;;;;;;;-0.20;100.00;101309.97;5050892;28;20496;-80
2022/01/16 04:59:44;;;;;;;13.90;6.63;;;;;;;-0.24;100.00;101311.59;5035608;28;20045;-83
2022/01/16 05:02:11;;;;;;;11.77;6.07;;;;;;;-0.22;100.00;101302.13;5035419;28;20049;-81
2022/01/16 05:04:38;;;;;;;13.30;6.63;;;;;;;-0.29;100.00;101301.03;5023196;28;20036;-85
2022/01/16 05:07:05;;;;;;;16.50;6.83;;;;;;;-0.31;100.00;101297.50;5037588;28;20052;-81
2022/01/16 05:09:32;;;;;;;13.00;6.83;;;;;;;-0.31;100.00;101289.72;5038294;28;20121;-80
2022/01/16 05:12:01;;;;;;;14.40;6.67;;;;;;;-0.35;100.00;101290.44;5054448;28;20760;-81
2022/01/16 05:17:14;;;;;;;14.73;6.33;;;;;;;-0.44;100.00;101299.63;5040109;28;20044;-80
2022/01/16 05:19:41;;;;;;;14.63;6.90;;;;;;;-0.46;100.00;101296.09;5040370;28;20045;-80
2022/01/16 05:22:07;;;;;;;14.10;6.43;;;;;;;-0.51;100.00;101289.84;5036281;28;20043;-79
2022/01/16 05:24:35;;;;;;;16.03;7.43;;;;;;;-0.53;100.00;101286.34;5036884;28;20041;-81
2022/01/16 05:27:02;;;;;;;15.43;7.30;;;;;;;-0.58;100.00;101274.09;5034352;28;20045;-80
2022/01/16 05:29:28;;;;;;;21.33;7.87;;;;;;;-0.58;100.00;101265.44;5035065;28;20482;-80
2022/01/16 05:31:55;;;;;;;15.20;6.70;;;;;;;-0.62;100.00;101254.03;5053033;28;20102;-80
2022/01/16 05:34:25;;;;;;;18.90;7.07;;;;;;;-0.59;100.00;101256.75;5037615;28;20436;-81
2022/01/16 05:36:52;;;;;;;13.17;6.50;;;;;;;-0.61;100.00;101261.00;5037408;28;20045;-80
2022/01/16 05:39:19;;;;;;;11.43;5.57;;;;;;;-0.64;100.00;101258.31;5070952;28;20131;-81
2022/01/16 05:41:46;;;;;;;13.97;6.13;;;;;;;-0.66;100.00;101256.50;5031305;28;20044;-81
2022/01/16 05:44:13;;;;;;;17.77;7.47;;;;;;;-0.70;100.00;101267.59;5027611;28;20048;-80
2022/01/16 05:46:40;;;;;;;14.10;6.37;;;;;;;-0.70;100.00;101272.78;5026095;28;20045;-80
2022/01/16 05:49:06;;;;;;;13.07;6.23;;;;;;;-0.67;100.00;101262.53;5015435;28;20048;-80
2022/01/16 05:51:33;;;;;;;14.57;6.50;;;;;;;-0.74;100.00;101252.75;5016780;28;20056;-81
2022/01/16 05:54:00;;;;;;;14.27;7.07;;;;;;;-0.76;100.00;101251.78;5030025;28;20041;-80
2022/01/16 05:56:26;;;;;;;13.60;5.80;;;;;;;-0.78;100.00;101243.97;5018124;28;20049;-80
2022/01/16 05:58:53;;;;;;;14.97;7.03;;;;;;;-0.79;100.00;101237.00;5038954;28;20052;-79
2022/01/16 06:01:20;;;;;;;16.43;6.17;;;;;;;-0.86;100.00;101243.69;5032786;28;20592;-79
2022/01/16 06:03:46;;;;;;;26.13;6.57;;;;;;;-0.86;100.00;101246.28;5015804;28;20037;-81
2022/01/16 06:06:13;;;;;;;13.63;6.20;;;;;;;-0.90;100.00;101240.97;5037903;28;20865;-80
2022/01/16 06:08:40;;;;;;;9.23;6.00;;;;;;;-0.89;100.00;101242.72;5038946;28;20051;-79
2022/01/16 06:11:07;;;;;;;13.30;6.23;;;;;;;-0.92;100.00;101240.03;5038404;28;20477;-79
2022/01/16 06:13:34;;;;;;;12.37;5.20;;;;;;;-0.95;100.00;101234.72;5030904;28;20044;-80
2022/01/16 06:16:02;;;;;;;15.10;6.87;;;;;;;-0.96;100.00;101225.19;5036937;28;20049;-80
2022/01/16 06:18:29;;;;;;;10.27;5.00;;;;;;;-0.98;100.00;101224.25;5039957;28;20036;-80
2022/01/16 06:20:55;;;;;;;15.13;6.47;;;;;;;-0.93;100.00;101213.19;5055969;28;20110;-81
2022/01/16 06:23:22;;;;;;;16.83;7.10;;;;;;;-0.98;100.00;101225.13;5055685;28;20048;-80
2022/01/16 06:25:54;;;;;;;14.60;6.83;;;;;;;-0.99;100.00;101214.69;5053381;28;20041;-80
2022/01/16 06:28:25;;;;;;;12.07;5.83;;;;;;;-0.96;100.00;101219.97;5038247;28;20044;-81
2022/01/16 06:30:52;;;;;;;14.03;6.10;;;;;;;-0.98;100.00;101219.94;5052030;28;20044;-82
2022/01/16 06:33:19;;;;;;;10.77;5.60;;;;;;;-1.02;100.00;101215.47;5037393;28;20048;-81
2022/01/16 06:35:45;;;;;;;16.43;6.50;;;;;;;-1.04;100.00;101209.34;5038661;28;20048;-80
2022/01/16 06:38:12;;;;;;;13.03;6.17;;;;;;;-1.06;100.00;101216.19;5037072;28;20110;-81
2022/01/16 06:40:39;;;;;;;11.97;5.30;;;;;;;-1.04;100.00;101216.25;5069944;28;20036;-81
2022/01/16 06:43:05;;;;;;;13.87;5.57;;;;;;;-1.06;100.00;101208.41;5036121;28;20102;-81
2022/01/16 06:45:32;;;;;;;9.37;4.87;;;;;;;-1.10;100.00;101211.72;5021447;28;20044;-81
2022/01/16 06:47:59;;;;;;;11.83;5.47;;;;;;;-1.11;100.00;101201.28;5034421;28;20136;-81
2022/01/16 06:50:25;;;;;;;15.93;5.53;;;;;;;-1.11;100.00;101216.84;5069622;28;20049;-80
2022/01/16 06:52:52;;;;;;;14.77;5.80;;;;;;;-1.11;100.00;101207.34;5035191;28;20079;-80
2022/01/16 06:55:19;;;;;;;13.10;5.20;;;;;;;-1.13;100.00;101203.84;5034422;28;20037;-81
2022/01/16 06:57:45;;;;;;;12.20;5.17;;;;;;;-1.11;100.00;101201.28;5024944;28;20045;-81
2022/01/16 07:00:13;;;;;;;15.13;6.83;;;;;;;-1.15;100.00;101198.59;5035708;28;20048;-82
2022/01/16 07:02:39;;;;;;;11.93;5.40;;;;;;;-1.17;100.00;101210.63;5065161;28;20492;-81
2022/01/16 07:05:06;;;;;;;13.40;5.43;;;;;;;-1.19;100.00;101208.78;5035766;28;20048;-82
2022/01/16 07:07:33;;;;;;;14.57;6.10;;;;;;;-1.20;100.00;101212.22;5011071;28;20071;-83
2022/01/16 07:10:00;;;;;;;9.83;5.17;;;;;;;-1.24;100.00;101216.44;5018935;28;20570;-81
2022/01/16 07:12:26;;;;;;;12.10;5.63;;;;;;;-1.25;100.00;101213.78;5050155;28;20045;-80
2022/01/16 07:14:53;;;;;;;14.27;5.93;;;;;;;-1.25;100.00;101204.28;5029593;28;20056;-81
2022/01/16 07:17:20;;;;;;;10.93;5.57;;;;;;;-1.26;100.00;101212.00;5047263;28;20094;-82
2022/01/16 07:19:46;;;;;;;11.37;5.80;;;;;;;-1.28;100.00;101209.34;5032087;28;20045;-80
2022/01/16 07:22:13;;;;;;;9.43;4.67;;;;;;;-1.30;100.00;101205.81;5032528;28;20051;-80
2022/01/16 07:24:40;;;;;;;12.90;4.87;;;;;;;-1.32;100.00;101211.78;5051117;28;20040;-80
2022/01/16 07:27:06;;;;;;;9.50;5.80;;;;;;;-1.34;100.00;101203.09;5066524;28;20105;-79
2022/01/16 07:29:33;;;;;;;22.27;6.87;;;;;;;-1.28;100.00;101196.38;5068075;28;20416;-80
2022/01/16 07:32:00;;;;;;;10.27;5.67;;;;;;;-1.28;100.00;101195.50;5033250;28;20056;-80
2022/01/16 07:34:26;;;;;;;13.00;4.90;;;;;;;-1.32;100.00;101198.84;5032445;28;20438;-80
2022/01/16 07:36:53;;;;;;;13.60;6.40;;;;;;;-1.30;100.00;101198.06;5030842;28;20100;-80
2022/01/16 07:39:20;;;;;;;10.30;4.87;;;;;;;-1.27;100.00;101198.16;5033804;28;20529;-80
2022/01/16 07:41:46;;;;;;;12.87;5.57;;;;;;;-1.29;100.00;101192.03;5032772;28;20518;-80
2022/01/16 07:44:14;;;;;;;19.20;10.03;;;;;;;-1.28;100.00;101198.97;5048920;28;20056;-79
2022/01/16 07:46:41;;;;;;;79.03;39.40;;;;;;;-1.28;100.00;101201.56;5039583;28;20110;-79
2022/01/16 07:49:07;;;;;;;52.07;24.53;;;;;;;-1.22;100.00;101206.97;5031865;28;20041;-80
2022/01/16 07:51:34;;;;;;;29.07;13.37;;;;;;;-1.23;100.00;101202.63;5050260;28;20040;-79
2022/01/16 07:54:01;;;;;;;18.80;6.90;;;;;;;-1.18;100.00;101197.59;5035120;28;20444;-80
2022/01/16 07:56:28;;;;;;;13.30;5.53;;;;;;;-1.14;100.00;101194.28;5034409;28;20044;-80
2022/01/16 07:58:54;;;;;;;12.47;5.83;;;;;;;-1.13;100.00;101178.78;5052278;28;20094;-81
2022/01/16 08:01:21;;;;;;;15.70;6.07;;;;;;;-1.08;100.00;101181.56;5025059;28;20060;-82
2022/01/16 08:03:50;;;;;;;15.80;5.80;;;;;;;-1.05;100.00;101181.66;5034907;28;20520;-81
2022/01/16 08:06:17;;;;;;;12.33;6.23;;;;;;;-1.00;100.00;101181.81;5014839;28;20041;-83
2022/01/16 08:08:44;;;;;;;18.20;7.57;;;;;;;-0.92;100.00;101170.00;5027347;28;20052;-81
2022/01/16 08:11:11;;;;;;;19.07;6.83;;;;;;;-0.85;100.00;101166.75;5022108;28;20421;-81
2022/01/16 08:13:37;;;;;;;13.37;6.93;;;;;;;-0.84;100.00;101168.56;5037065;28;20475;-80
2022/01/16 08:16:05;;;;;;;18.60;6.17;;;;;;;-0.81;100.00;101157.38;5031328;28;20041;-81
2022/01/16 08:18:32;;;;;;;17.77;6.40;;;;;;;-0.79;100.00;101161.78;5034797;28;20044;-80
2022/01/16 08:21:00;;;;;;;23.83;8.80;;;;;;;-0.71;100.00;101157.72;5037589;28;20040;-80
2022/01/16 08:23:28;;;;;;;19.10;7.20;;;;;;;-0.62;100.00;101167.53;5030805;28;20102;-82
2022/01/16 08:25:55;;;;;;;13.37;6.67;;;;;;;-0.61;100.00;101167.56;5030503;28;20101;-80
2022/01/16 08:28:22;;;;;;;14.83;7.07;;;;;;;-0.55;100.00;101168.63;5038232;28;20119;-82
2022/01/16 08:30:49;;;;;;;23.03;9.27;;;;;;;-0.48;100.00;101160.22;5040943;28;20043;-82
2022/01/16 08:33:16;;;;;;;14.73;6.47;;;;;;;-0.45;100.00;101155.09;5031125;28;20052;-79
2022/01/16 08:35:42;;;;;;;21.57;7.97;;;;;;;-0.41;100.00;101144.00;5049982;28;20040;-82
2022/01/16 08:38:09;;;;;;;14.17;7.47;;;;;;;-0.38;100.00;101157.06;5038283;28;20044;-82
2022/01/16 08:40:36;;;;;;;13.83;6.13;;;;;;;-0.40;100.00;101144.03;5037361;28;20045;-82
2022/01/16 08:43:08;;;;;;;15.63;7.57;;;;;;;-0.35;100.00;101145.03;5008654;28;20551;-82
2022/01/16 08:45:38;;;;;;;20.60;8.43;;;;;;;-0.23;100.00;101139.38;5039848;28;20075;-82
2022/01/16 08:48:06;;;;;;;24.23;7.90;;;;;;;-0.26;100.00;101136.66;5054667;28;20041;-81
2022/01/16 08:50:37;;;;;;;18.80;7.97;;;;;;;-0.15;100.00;101134.41;5053996;28;20509;-82
2022/01/16 08:53:05;;;;;;;21.47;7.47;;;;;;;-0.18;100.00;101132.59;5037580;28;20486;-80
2022/01/16 08:55:33;;;;;;;18.90;7.80;;;;;;;-0.16;100.00;101120.56;5053734;28;20036;-81
2022/01/16 08:58:01;;;;;;;15.80;8.13;;;;;;;-0.07;100.00;101120.81;5038921;28;20037;-83
2022/01/16 09:00:28;;;;;;;23.47;8.83;;;;;;;-0.01;100.00;101117.50;5074215;28;20512;-81
2022/01/16 09:02:57;;;;;;;18.10;8.57;;;;;;;0.03;100.00;101115.91;5040867;28;20074;-83
2022/01/16 09:05:28;;;;;;;24.57;9.50;;;;;;;0.09;100.00;101119.56;5058341;28;20072;-83
2022/01/16 09:07:54;;;;;;;19.40;9.37;;;;;;;0.11;100.00;101119.59;5056242;28;20044;-84
2022/01/16 09:10:22;;;;;;;23.23;9.63;;;;;;;0.17;100.00;101114.56;5063684;28;20086;-81
2022/01/16 09:12:49;;;;;;;24.00;12.17;;;;;;;0.24;100.00;101108.72;5037096;28;20045;-80
2022/01/16 09:15:15;;;;;;;21.37;10.07;;;;;;;0.24;100.00;101109.59;5041654;28;20037;-82
2022/01/16 09:17:42;;;;;;;17.17;9.37;;;;;;;0.31;100.00;101109.78;5037252;28;20049;-83
2022/01/16 09:20:10;;;;;;;24.83;11.17;;;;;;;0.31;100.00;101102.84;5058670;28;20133;-80
2022/01/16 09:22:39;;;;;;;27.57;13.30;;;;;;;0.32;100.00;101112.41;5057070;28;20050;-82
2022/01/16 09:25:07;;;;;;;24.93;11.73;;;;;;;0.38;100.00;101109.09;5053521;28;20050;-83
2022/01/16 09:27:34;;;;;;;21.27;10.93;;;;;;;0.40;100.00;101110.03;5049074;28;20047;-81
2022/01/16 09:30:01;;;;;;;22.40;12.27;;;;;;;0.49;100.00;101103.34;5073440;28;20060;-83
2022/01/16 09:32:28;;;;;;;25.03;11.47;;;;;;;0.44;100.00;101102.38;5037964;28;20049;-81
2022/01/16 09:34:54;;;;;;;25.13;11.30;;;;;;;0.50;100.00;101099.03;5025034;28;20044;-83
2022/01/16 09:37:21;;;;;;;26.27;13.37;;;;;;;0.56;100.00;101099.22;5047775;28;20050;-81
2022/01/16 09:39:50;;;;;;;26.47;12.40;;;;;;;0.61;100.00;101101.94;5037120;28;20071;-82
2022/01/16 09:42:21;;;;;;;25.43;12.27;;;;;;;0.59;100.00;101107.13;5055798;28;20044;-79
2022/01/16 09:44:48;;;;;;;25.93;12.57;;;;;;;0.67;100.00;101097.75;5042209;28;20040;-81
2022/01/16 09:47:15;;;;;;;28.53;13.47;;;;;;;0.66;100.00;101100.34;5041693;28;20040;-79
2022/01/16 09:49:42;;;;;;;22.53;12.07;;;;;;;0.68;100.00;101111.69;5042115;28;20052;-79
2022/01/16 09:52:09;;;;;;;25.90;12.10;;;;;;;0.81;100.00;101108.53;5039815;28;20044;-81
2022/01/16 09:54:37;;;;;;;28.17;12.40;;;;;;;0.76;100.00;101105.84;5041171;28;20048;-79
2022/01/16 09:57:04;;;;;;;22.00;11.47;;;;;;;0.79;100.00;101099.84;5037779;28;20047;-79
2022/01/16 09:59:31;;;;;;;23.07;11.53;;;;;;;0.76;100.00;101090.22;5041334;28;20044;-78
2022/01/16 10:01:58;;;;;;;20.73;12.00;;;;;;;0.83;100.00;101096.44;5039156;28;20044;-79
2022/01/16 10:04:36;;;;;;;25.33;12.93;;;;;;;0.85;100.00;101092.19;5037481;28;20049;-79
2022/01/16 10:07:09;;;;;;;23.60;13.07;;;;;;;0.83;100.00;101089.53;5050579;28;20045;-78
2022/01/16 10:09:38;;;;;;;31.03;13.67;;;;;;;0.85;100.00;101100.00;5037297;28;20048;-78
2022/01/16 10:12:14;;;;;;;25.10;12.97;;;;;;;0.81;100.00;101106.81;5036384;28;20120;-78
2022/01/16 10:14:49;;;;;;;28.97;13.03;;;;;;;0.76;100.00;101104.97;5037688;28;20453;-78
2022/01/16 10:17:21;;;;;;;24.73;13.13;;;;;;;0.71;100.00;101102.22;5057533;28;20052;-79
2022/01/16 10:20:03;;;;;;;24.93;13.50;;;;;;;0.72;100.00;101103.09;5041397;28;20049;-78
2022/01/16 10:22:38;;;;;;;31.07;15.90;;;;;;;0.71;100.00;101099.63;5041554;28;20045;-80
2022/01/16 10:25:07;;;;;;;33.90;14.63;;;;;;;0.77;100.00;101107.59;5063252;28;20120;-79
2022/01/16 10:27:37;;;;;;;31.47;15.33;;;;;;;0.74;100.00;101110.09;5077513;28;20041;-80
2022/01/16 10:30:07;;;;;;;30.90;15.87;;;;;;;0.77;100.00;101111.91;5047114;28;20037;-81
2022/01/16 10:32:37;;;;;;;31.60;17.27;;;;;;;0.80;100.00;101114.59;5064179;22;20460;-79
2022/01/16 10:35:24;;;;;;;30.93;17.20;;;;;;;0.77;100.00;101119.72;5054353;28;20503;-81
2022/01/16 10:37:57;;;;;;;26.97;15.07;;;;;;;0.72;100.00;101116.09;5032653;28;20048;-81
2022/01/16 10:40:31;;;;;;;28.23;14.47;;;;;;;0.70;100.00;101121.28;5042135;28;20412;-82
2022/01/16 10:43:03;;;;;;;;;;;;;;;0.70;100.00;101126.47;5043467;28;20584;-82
2022/01/16 10:45:33;;;;;;;28.20;15.68;;;;;;;0.68;100.00;101116.88;5068059;28;19955;-81
2022/01/16 10:48:01;;;;;;;31.50;14.40;;;;;;;0.66;100.00;101116.81;5036938;28;20052;-82
2022/01/16 10:50:42;;;;;;;33.00;16.13;;;;;;;0.60;100.00;101119.28;5056918;28;20459;-82
2022/01/16 10:53:12;;;;;;;39.47;16.10;;;;;;;0.62;100.00;101114.09;5043643;28;20041;-78
2022/01/16 10:55:47;;;;;;;31.40;15.47;;;;;;;0.65;100.00;101108.97;5046489;28;20048;-81
2022/01/16 10:58:19;;;;;;;32.03;16.43;;;;;;;0.57;100.00;101114.84;5080687;28;20040;-79
2022/01/16 11:00:54;;;;;;;38.07;16.50;;;;;;;0.47;100.00;101112.84;5073677;28;20048;-80
2022/01/16 11:03:23;;;;;;;32.97;16.50;;;;;;;0.50;100.00;101115.50;5069658;28;20064;-80
2022/01/16 11:05:50;;;;;;;31.57;15.70;;;;;;;0.57;100.00;101117.44;5041164;28;20909;-81
2022/01/16 11:08:19;;;;;;;32.40;16.97;;;;;;;0.59;100.00;101121.81;5047386;28;20044;-81
2022/01/16 11:10:48;;;;;;;46.20;22.97;;;;;;;0.59;100.00;101106.19;5059401;28;20130;-80
2022/01/16 11:13:17;;;;;;;43.57;19.77;;;;;;;0.54;100.00;101117.38;5064461;28;20036;-81
2022/01/16 11:15:46;;;;;;;42.37;17.40;;;;;;;0.51;100.00;101112.09;5061208;28;20040;-81
2022/01/16 11:18:14;;;;;;;36.93;18.60;;;;;;;0.64;100.00;101104.63;5047052;28;20040;-81
2022/01/16 11:20:45;;;;;;;38.07;19.90;;;;;;;0.60;100.00;101097.59;5044965;28;20590;-81
2022/01/16 11:23:15;;;;;;;40.97;19.10;;;;;;;0.64;100.00;101097.69;5053534;28;20041;-81
2022/01/16 11:25:44;;;;;;;42.43;18.73;;;;;;;0.64;100.00;101091.63;5076269;28;20047;-81
2022/01/16 11:28:14;;;;;;;39.27;17.97;;;;;;;0.60;100.00;101097.59;5042877;28;20516;-81
2022/01/16 11:30:49;;;;;;;44.70;18.70;;;;;;;0.62;100.00;101081.19;5059961;28;20074;-80
2022/01/16 11:33:21;;;;;;;43.10;18.87;;;;;;;0.67;100.00;101083.88;5063125;28;20131;-80
2022/01/16 11:36:00;;;;;;;38.70;18.80;;;;;;;0.71;100.00;101081.41;5061631;28;20111;-82
2022/01/16 11:38:29;;;;;;;39.20;19.10;;;;;;;0.74;100.00;101078.00;5037450;28;20652;-81
2022/01/16 11:40:58;;;;;;;39.97;18.73;;;;;;;0.71;100.00;101060.63;5069947;28;20066;-81
2022/01/16 11:43:36;;;;;;;51.50;20.37;;;;;;;0.73;100.00;101068.44;5058694;28;20044;-80
2022/01/16 11:46:13;;;;;;;42.17;18.47;;;;;;;0.76;100.00;101072.03;5062070;28;20073;-81
2022/01/16 11:48:50;;;;;;;39.87;19.90;;;;;;;0.84;100.00;101067.91;5062987;28;20044;-80
2022/01/16 11:51:32;;;;;;;49.77;22.80;;;;;;;0.84;100.00;101057.50;5057480;28;20044;-80
2022/01/16 11:54:15;;;;;;;51.47;23.77;;;;;;;0.87;100.00;101059.28;5080476;28;20381;-81
2022/01/16 11:56:42;;;;;;;45.07;22.63;;;;;;;0.81;100.00;101059.13;5061692;28;20055;-81
2022/01/16 11:59:11;;;;;;;43.00;20.10;;;;;;;0.94;100.00;101049.94;5085163;28;20039;-82
2022/01/16 12:01:45;;;;;;;49.43;20.40;;;;;;;0.96;100.00;101049.09;5090305;28;20048;-81
2022/01/16 12:04:30;;;;;;;44.17;19.65;;;;;;;0.88;100.00;101061.03;5070386;28;20044;-81
2022/01/16 12:07:20;;;;;;;42.07;18.43;;;;;;;0.83;100.00;101057.44;5063258;28;20054;-81
2022/01/16 12:12:14;;;;;;;39.20;18.67;;;;;;;0.94;100.00;101053.41;5078109;28;20041;-82